createdAt,value
2018-12-07T00:02:15.290Z,100323.52
2018-12-07T00:04:45.700Z,100321.25
2018-12-07T00:07:15.472Z,100325.55
2018-12-07T00:09:45.338Z,100311.56
2018-12-07T00:12:15.244Z,100320.66
2018-12-07T00:14:45.836Z,100321.98
2018-12-07T00:17:15.623Z,100312.30
2018-12-07T00:19:48.215Z,100312.92
2018-12-07T00:22:18.306Z,100294.51
2018-12-07T00:24:48.320Z,100295.72
2018-12-07T00:27:18.206Z,100285.95
2018-12-07T00:29:57.463Z,100281.88
2018-12-07T00:32:27.294Z,100277.61
2018-12-07T00:34:58.746Z,100266.16
2018-12-07T00:37:28.762Z,100258.52
2018-12-07T00:39:58.495Z,100268.20
2018-12-07T00:42:28.475Z,100265.94
2018-12-07T00:44:58.292Z,100268.33
2018-12-07T00:47:28.232Z,100260.09
2018-12-07T00:49:58.254Z,100261.41
2018-12-07T00:52:28.080Z,100263.08
2018-12-07T00:54:58.123Z,100263.08
2018-12-07T00:57:28.063Z,100259.27
2018-12-07T00:59:58.430Z,100254.88
2018-12-07T01:02:28.386Z,100252.70
2018-12-07T01:04:58.303Z,100246.27
2018-12-07T01:07:28.433Z,100243.77
2018-12-07T01:09:58.113Z,100239.17
2018-12-07T01:12:28.071Z,100250.73
2018-12-07T01:14:58.011Z,100254.56
2018-12-07T01:17:33.859Z,100255.16
2018-12-07T01:20:03.542Z,100256.14
2018-12-07T01:22:33.345Z,100256.36
2018-12-07T01:25:03.449Z,100261.64
2018-12-07T01:27:33.159Z,100252.22
2018-12-07T01:30:03.151Z,100244.34
2018-12-07T01:32:33.020Z,100250.18
2018-12-07T01:35:02.966Z,100242.92
2018-12-07T01:37:33.154Z,100235.97
2018-12-07T01:40:03.672Z,100233.70
2018-12-07T01:42:34.835Z,100233.70
2018-12-07T01:45:04.808Z,100232.17
2018-12-07T01:47:38.842Z,100215.08
2018-12-07T01:50:08.853Z,100213.90
2018-12-07T01:52:38.555Z,100212.92
2018-12-07T01:55:08.594Z,100218.78
2018-12-07T01:57:38.328Z,100203.01
2018-12-07T02:00:09.039Z,100201.83
2018-12-07T02:02:39.111Z,100189.87
2018-12-07T02:05:09.735Z,100196.32
2018-12-07T02:07:39.429Z,100198.34
2018-12-07T02:10:10.582Z,100183.56
2018-12-07T02:12:40.279Z,100192.75
2018-12-07T02:15:10.343Z,100197.87
2018-12-07T02:17:40.472Z,100192.15
2018-12-07T02:20:10.152Z,100199.68
2018-12-07T02:22:40.285Z,100199.78
2018-12-07T02:25:10.309Z,100192.03
2018-12-07T02:27:45.446Z,100202.41
2018-12-07T02:30:23.920Z,100199.08
2018-12-07T02:32:53.687Z,100186.63
2018-12-07T02:35:23.378Z,100174.08
2018-12-07T02:37:53.075Z,100168.70
2018-12-07T02:40:28.236Z,100163.33
2018-12-07T02:42:58.051Z,100153.91
2018-12-07T02:45:28.169Z,100144.81
2018-12-07T02:47:58.050Z,100135.01
2018-12-07T02:50:28.213Z,100125.91
2018-12-07T02:52:58.334Z,100123.89
2018-12-07T02:55:28.383Z,100126.52
2018-12-07T02:57:58.539Z,100119.92
2018-12-07T03:00:29.472Z,100120.66
2018-12-07T03:02:59.227Z,100125.18
2018-12-07T03:05:29.265Z,100121.13
2018-12-07T03:07:59.050Z,100124.72
2018-12-07T03:10:29.105Z,100119.81
2018-12-07T03:12:59.074Z,100124.22
2018-12-07T03:15:29.145Z,100114.66
2018-12-07T03:18:00.659Z,100111.53
2018-12-07T03:20:30.525Z,100098.98
2018-12-07T03:23:00.202Z,100106.02
2018-12-07T03:25:30.296Z,100103.64
2018-12-07T03:28:00.330Z,100103.14
2018-12-07T03:30:30.319Z,100101.83
2018-12-07T03:33:00.543Z,100096.67
2018-12-07T03:35:30.262Z,100095.36
2018-12-07T03:38:00.054Z,100085.91
2018-12-07T03:40:30.092Z,100069.88
2018-12-07T03:43:00.206Z,100069.62
2018-12-07T03:45:30.322Z,100071.08
2018-12-07T03:48:00.285Z,100068.55
2018-12-07T03:50:30.503Z,100051.69
2018-12-07T03:53:00.392Z,100058.38
2018-12-07T03:55:30.110Z,100062.79
2018-12-07T03:58:00.340Z,100057.52
2018-12-07T04:00:30.333Z,100046.80
2018-12-07T04:03:00.430Z,100061.96
2018-12-07T04:05:30.161Z,100062.06
2018-12-07T04:08:00.219Z,99871.00
2018-12-07T04:10:30.331Z,100058.06
2018-12-07T04:13:00.318Z,100058.77
2018-12-07T04:15:30.809Z,100048.50
2018-12-07T04:18:00.514Z,100049.21
2018-12-07T04:20:30.226Z,100045.97
2018-12-07T04:23:00.120Z,100045.50
2018-12-07T04:25:33.688Z,100042.17
2018-12-07T04:28:03.555Z,100035.69
2018-12-07T04:30:33.442Z,100037.96
2018-12-07T04:33:03.378Z,100035.54
2018-12-07T04:35:33.410Z,100021.92
2018-12-07T04:38:03.394Z,100019.28
2018-12-07T04:40:33.462Z,100017.45
2018-12-07T04:43:03.269Z,100003.86
2018-12-07T04:45:33.394Z,100005.64
2018-12-07T04:48:03.313Z,100004.69
2018-12-07T04:50:33.364Z,99996.58
2018-12-07T04:53:03.560Z,99991.05
2018-12-07T04:55:33.467Z,99989.94
2018-12-07T04:58:03.330Z,99994.22
2018-12-07T05:00:33.136Z,99976.31
2018-12-07T05:03:03.026Z,99982.84
2018-12-07T05:05:33.149Z,99987.38
2018-12-07T05:08:03.094Z,99987.58
2018-12-07T05:10:33.109Z,99979.91
2018-12-07T05:13:04.456Z,99981.92
2018-12-07T05:15:34.139Z,99992.31
2018-12-07T05:18:04.293Z,99987.09
2018-12-07T05:20:34.072Z,99990.20
2018-12-07T05:23:04.305Z,99978.16
2018-12-07T05:25:34.219Z,99975.84
2018-12-07T05:28:09.036Z,99978.09
2018-12-07T05:30:39.313Z,99986.81
2018-12-07T05:33:09.845Z,99983.29
2018-12-07T05:35:39.917Z,99981.50
2018-12-07T05:38:09.671Z,99983.98
2018-12-07T05:40:39.488Z,99972.91
2018-12-07T05:43:09.502Z,99977.36
2018-12-07T05:45:39.269Z,99969.19
2018-12-07T05:48:09.515Z,99963.14
2018-12-07T05:50:39.207Z,99965.78
2018-12-07T05:53:09.100Z,99959.27
2018-12-07T05:55:39.147Z,99957.68
2018-12-07T05:58:09.502Z,99962.21
2018-12-07T06:00:39.408Z,99949.50
2018-12-07T06:03:09.465Z,99954.38
2018-12-07T06:05:40.575Z,99953.33
2018-12-07T06:08:10.330Z,99957.52
2018-12-07T06:10:40.699Z,99946.47
2018-12-07T06:13:10.536Z,99949.87
2018-12-07T06:15:40.419Z,99954.55
2018-12-07T06:18:10.592Z,99945.39
2018-12-07T06:20:40.460Z,99951.42
2018-12-07T06:23:11.594Z,99951.77
2018-12-07T06:25:41.582Z,99940.95
2018-12-07T06:28:11.443Z,99943.23
2018-12-07T06:30:53.940Z,99938.12
2018-12-07T06:33:24.045Z,99939.63
2018-12-07T06:35:54.174Z,99934.65
2018-12-07T06:38:24.300Z,99933.52
2018-12-07T06:40:54.705Z,99931.73
2018-12-07T06:43:24.543Z,99928.59
2018-12-07T06:45:54.400Z,99929.69
2018-12-07T06:48:24.294Z,99929.69
2018-12-07T06:50:54.100Z,99924.17
2018-12-07T06:53:24.310Z,99923.61
2018-12-07T06:55:54.389Z,99922.75
2018-12-07T06:58:24.809Z,99925.89
2018-12-07T07:00:54.644Z,99915.69
2018-12-07T07:03:24.534Z,99916.38
2018-12-07T07:05:55.516Z,99916.97
2018-12-07T07:08:25.216Z,99908.30
2018-12-07T07:10:55.183Z,99905.33
2018-12-07T07:13:25.252Z,99907.69
2018-12-07T07:15:55.128Z,99900.75
2018-12-07T07:18:25.577Z,99912.22
2018-12-07T07:20:56.738Z,99908.48
2018-12-07T07:23:26.739Z,99907.10
2018-12-07T07:25:56.679Z,99880.70
2018-12-07T07:28:26.434Z,99898.56
2018-12-07T07:30:56.529Z,99902.34
2018-12-07T07:33:26.404Z,99896.67
2018-12-07T07:35:56.843Z,99903.43
2018-12-07T07:38:27.711Z,99899.06
2018-12-07T07:40:57.610Z,99897.34
2018-12-07T07:43:27.568Z,99903.21
2018-12-07T07:45:57.440Z,99896.33
2018-12-07T07:48:27.239Z,99900.50
2018-12-07T07:50:57.698Z,99892.08
2018-12-07T07:53:27.684Z,99890.30
2018-12-07T07:55:57.482Z,99882.72
2018-12-07T07:58:27.432Z,99879.84
2018-12-07T08:00:57.322Z,99880.27
2018-12-07T08:03:28.003Z,99875.55
2018-12-07T08:05:58.272Z,99873.54
2018-12-07T08:08:28.100Z,99851.76
2018-12-07T08:10:58.671Z,99831.67
2018-12-07T08:13:28.734Z,99864.36
2018-12-07T08:15:58.505Z,99864.54
2018-12-07T08:18:28.526Z,99867.00
2018-12-07T08:20:58.343Z,99862.41
2018-12-07T08:23:28.247Z,99864.98
2018-12-07T08:25:58.503Z,99861.66
2018-12-07T08:28:28.817Z,99862.34
2018-12-07T08:30:58.824Z,99859.62
2018-12-07T08:33:28.864Z,99864.28
2018-12-07T08:35:58.729Z,99860.37
2018-12-07T08:38:28.566Z,99858.94
2018-12-07T08:40:58.628Z,99855.92
2018-12-07T08:43:28.657Z,99859.92
2018-12-07T08:45:58.387Z,99857.80
2018-12-07T08:48:28.379Z,99850.09
2018-12-07T08:50:58.227Z,99847.50
2018-12-07T08:53:28.272Z,99855.21
2018-12-07T08:55:58.335Z,99846.86
2018-12-07T08:58:28.402Z,99848.02
2018-12-07T09:00:59.583Z,99850.36
2018-12-07T09:03:29.283Z,99842.63
2018-12-07T09:06:03.316Z,99840.47
2018-12-07T09:08:33.139Z,99842.17
2018-12-07T09:11:03.218Z,99842.51
2018-12-07T09:13:33.097Z,99841.27
2018-12-07T09:16:03.393Z,99840.15
2018-12-07T09:18:33.498Z,99834.39
2018-12-07T09:21:03.516Z,99832.09
2018-12-07T09:23:33.361Z,99823.34
2018-12-07T09:26:03.428Z,99820.73
2018-12-07T09:28:33.664Z,99812.67
2018-12-07T09:31:03.688Z,99814.34
2018-12-07T09:33:33.407Z,99806.50
2018-12-07T09:36:03.544Z,99810.09
2018-12-07T09:38:33.343Z,99807.18
2018-12-07T09:41:03.424Z,99820.44
2018-12-07T09:43:33.439Z,99808.88
2018-12-07T09:46:03.142Z,99806.94
2018-12-07T09:48:33.276Z,99800.19
2018-12-07T09:51:03.220Z,99792.42
2018-12-07T09:53:34.440Z,99783.22
2018-12-07T09:56:04.715Z,99791.63
2018-12-07T09:58:34.927Z,99776.66
2018-12-07T10:01:04.761Z,99777.67
2018-12-07T10:03:34.584Z,99767.77
2018-12-07T10:06:04.377Z,99756.17
2018-12-07T10:08:40.044Z,99748.91
2018-12-07T10:11:10.084Z,99742.97
2018-12-07T10:13:40.573Z,99738.70
2018-12-07T10:16:10.338Z,99736.06
2018-12-07T10:18:40.299Z,99732.11
2018-12-07T10:21:10.444Z,99728.30
2018-12-07T10:23:40.348Z,99723.52
2018-12-07T10:26:11.823Z,99723.88
2018-12-07T10:28:42.100Z,99720.05
2018-12-07T10:31:12.405Z,99723.24
2018-12-07T10:33:42.206Z,99709.67
2018-12-07T10:36:12.303Z,99708.38
2018-12-07T10:38:42.095Z,99712.15
2018-12-07T10:41:12.161Z,99685.86
2018-12-07T10:43:43.784Z,99699.13
2018-12-07T10:46:13.556Z,99695.82
2018-12-07T10:48:43.390Z,99678.45
2018-12-07T10:51:13.638Z,99684.40
2018-12-07T10:53:43.748Z,99685.73
2018-12-07T10:56:13.808Z,99675.14
2018-12-07T10:58:43.557Z,99680.30
2018-12-07T11:01:18.266Z,99667.73
2018-12-07T11:03:52.920Z,99664.42
2018-12-07T11:06:28.121Z,99658.62
2018-12-07T11:09:03.257Z,99653.84
2018-12-07T11:11:38.229Z,99648.21
2018-12-07T11:14:12.848Z,99649.21
2018-12-07T11:16:48.062Z,99644.73
2018-12-07T11:19:23.021Z,99651.02
2018-12-07T11:21:59.119Z,99625.52
2018-12-07T11:24:33.924Z,99637.32
2018-12-07T11:27:14.140Z,99628.52
2018-12-07T11:29:49.238Z,99624.56
2018-12-07T11:32:30.608Z,99624.27
2018-12-07T11:35:04.904Z,99614.63
2018-12-07T11:37:35.232Z,99619.13
2018-12-07T11:40:06.739Z,99614.48
2018-12-07T11:42:36.671Z,99615.33
2018-12-07T11:45:07.273Z,99612.34
2018-12-07T11:47:37.155Z,99609.33
2018-12-07T11:50:08.266Z,99609.70
2018-12-07T11:52:38.113Z,99598.92
2018-12-07T11:55:08.345Z,99600.91
2018-12-07T11:57:38.391Z,99586.86
2018-12-07T12:00:10.069Z,99586.67
2018-12-07T12:02:40.297Z,99583.88
2018-12-07T12:05:10.215Z,99573.61
2018-12-07T12:07:40.211Z,99577.40
2018-12-07T12:10:10.342Z,99575.74
2018-12-07T12:12:40.422Z,99570.78
2018-12-07T12:15:10.151Z,99565.66
2018-12-07T12:17:40.108Z,99573.27
2018-12-07T12:20:10.371Z,99564.16
2018-12-07T12:22:40.252Z,99569.11
2018-12-07T12:25:10.077Z,99567.45
2018-12-07T12:27:40.051Z,99563.48
2018-12-07T12:30:10.322Z,99553.86
2018-12-07T12:32:40.419Z,99550.22
2018-12-07T12:35:10.308Z,99544.59
2018-12-07T12:37:40.089Z,99540.94
2018-12-07T12:40:10.143Z,99539.30
2018-12-07T12:42:40.259Z,99523.72
2018-12-07T12:45:11.316Z,99526.38
2018-12-07T12:47:41.437Z,99520.93
2018-12-07T12:50:16.210Z,99521.72
2018-12-07T12:52:46.338Z,99518.93
2018-12-07T12:55:16.615Z,99512.30
2018-12-07T12:57:46.524Z,99517.07
2018-12-07T13:00:16.316Z,99513.94
2018-12-07T13:02:46.451Z,99511.78
2018-12-07T13:05:16.588Z,99507.14
2018-12-07T13:07:46.278Z,99508.80
2018-12-07T13:10:16.121Z,99503.83
2018-12-07T13:12:46.148Z,99504.83
2018-12-07T13:15:16.444Z,99501.18
2018-12-07T13:17:46.655Z,99494.89
2018-12-07T13:20:16.637Z,99502.84
2018-12-07T13:22:46.580Z,99501.19
2018-12-07T13:25:16.373Z,99495.08
2018-12-07T13:27:46.584Z,99488.27
2018-12-07T13:30:18.662Z,99491.26
2018-12-07T13:32:48.995Z,99494.56
2018-12-07T13:35:19.329Z,99477.02
2018-12-07T13:37:49.429Z,99475.67
2018-12-07T13:40:19.279Z,99465.41
2018-12-07T13:42:49.566Z,99473.03
2018-12-07T13:45:19.767Z,99462.78
2018-12-07T13:47:50.319Z,99464.10
2018-12-07T13:50:25.289Z,99457.16
2018-12-07T13:52:55.352Z,99464.10
2018-12-07T13:55:25.545Z,99456.48
2018-12-07T13:57:55.886Z,99454.52
2018-12-07T14:00:26.635Z,99447.89
2018-12-07T14:02:56.827Z,99450.20
2018-12-07T14:05:32.160Z,99444.42
2018-12-07T14:08:00.031Z,99442.59
2018-12-07T14:10:30.705Z,99444.91
2018-12-07T14:13:00.949Z,99428.05
2018-12-07T14:15:31.556Z,99433.66
2018-12-07T14:18:02.018Z,99431.69
2018-12-07T14:20:32.487Z,99433.67
2018-12-07T14:23:02.702Z,99423.41
2018-12-07T14:25:33.037Z,99419.30
2018-12-07T14:28:03.287Z,99422.41
2018-12-07T14:30:33.383Z,99419.94
2018-12-07T14:33:03.697Z,99417.77
2018-12-07T14:35:33.960Z,99416.13
2018-12-07T14:38:04.105Z,99412.81
2018-12-07T14:40:34.628Z,99413.47
2018-12-07T14:43:05.513Z,99410.18
2018-12-07T14:45:35.765Z,99405.39
2018-12-07T14:48:06.271Z,99413.66
2018-12-07T14:50:36.662Z,99397.93
2018-12-07T14:53:06.740Z,99404.23
2018-12-07T14:55:37.944Z,99395.63
2018-12-07T14:58:08.202Z,99393.98
2018-12-07T15:00:38.452Z,99393.50
2018-12-07T15:03:08.555Z,99395.16
2018-12-07T15:05:38.846Z,99379.76
2018-12-07T15:08:09.539Z,99381.05
2018-12-07T15:10:39.714Z,99378.27
2018-12-07T15:13:10.327Z,99370.98
2018-12-07T15:15:40.476Z,99360.34
2018-12-07T15:18:10.820Z,99363.37
2018-12-07T15:20:48.704Z,99358.74
2018-12-07T15:23:19.199Z,99356.41
2018-12-07T15:25:49.500Z,99360.58
2018-12-07T15:28:19.622Z,99351.63
2018-12-07T15:30:54.712Z,99349.34
2018-12-07T15:33:25.324Z,99349.03
2018-12-07T15:35:55.985Z,99348.51
2018-12-07T15:38:26.742Z,99341.42
2018-12-07T15:40:57.266Z,99343.07
2018-12-07T15:43:27.699Z,99333.48
2018-12-07T15:45:57.925Z,99334.94
2018-12-07T15:48:28.601Z,99329.20
2018-12-07T15:50:58.680Z,99328.02
2018-12-07T15:53:29.486Z,99326.05
2018-12-07T15:55:59.766Z,99317.64
2018-12-07T15:58:30.222Z,99321.59
2018-12-07T16:01:00.670Z,99319.08
2018-12-07T16:03:32.368Z,99305.86
2018-12-07T16:06:02.740Z,99307.17
2018-12-07T16:08:33.406Z,99300.07
2018-12-07T16:11:03.667Z,99302.41
2018-12-07T16:13:33.832Z,99283.83
2018-12-07T16:16:04.493Z,99285.80
2018-12-07T16:18:35.169Z,99279.17
2018-12-07T16:21:05.678Z,99270.04
2018-12-07T16:23:35.877Z,99267.20
2018-12-07T16:26:08.196Z,99255.47
2018-12-07T16:28:38.492Z,99250.59
2018-12-07T16:31:09.284Z,99245.48
2018-12-07T16:33:39.332Z,99235.38
2018-12-07T16:36:10.103Z,99232.48
2018-12-07T16:38:40.427Z,99231.27
2018-12-07T16:41:10.406Z,99221.55
2018-12-07T16:43:41.696Z,99216.08
2018-12-07T16:46:12.203Z,99228.05
2018-12-07T16:48:43.086Z,99209.08
2018-12-07T16:51:13.906Z,99208.10
2018-12-07T16:53:49.209Z,99205.15
2018-12-07T16:56:20.720Z,99202.50
2018-12-07T16:58:50.873Z,99203.50
2018-12-07T17:01:21.373Z,99184.15
2018-12-07T17:03:52.983Z,99202.66
2018-12-07T17:06:24.201Z,99188.47
2018-12-07T17:08:55.700Z,99192.44
2018-12-07T17:11:26.736Z,99180.06
2018-12-07T17:13:56.981Z,99178.92
2018-12-07T17:16:28.782Z,99177.11
2018-12-07T17:18:59.599Z,99170.44
2018-12-07T17:21:31.495Z,99165.31
2018-12-07T17:24:02.452Z,99168.63
2018-12-07T17:26:33.287Z,99152.88
2018-12-07T17:29:03.599Z,99153.70
2018-12-07T17:31:34.331Z,99155.53
2018-12-07T17:36:45.928Z,99148.08
2018-12-07T17:39:16.335Z,99147.28
2018-12-07T17:41:46.818Z,99141.13
2018-12-07T17:44:17.072Z,99135.99
2018-12-07T17:46:48.098Z,99130.08
2018-12-07T17:49:18.469Z,99123.30
2018-12-07T17:51:49.797Z,99118.98
2018-12-07T17:54:19.691Z,99126.59
2018-12-07T17:56:50.329Z,99116.03
2018-12-07T17:59:20.529Z,99106.12
2018-12-07T18:01:50.337Z,99110.03
2018-12-07T18:04:20.447Z,99107.06
2018-12-07T18:06:50.547Z,99104.63
2018-12-07T18:09:21.529Z,99090.23
2018-12-07T18:11:51.669Z,99087.04
2018-12-07T18:14:22.270Z,99088.53
2018-12-07T18:16:52.618Z,99081.39
2018-12-07T18:19:22.591Z,99070.21
2018-12-07T18:21:52.574Z,99068.34
2018-12-07T18:24:22.785Z,99062.76
2018-12-07T18:26:53.962Z,99029.76
2018-12-07T18:29:24.355Z,99051.13
2018-12-07T18:31:54.619Z,99044.16
2018-12-07T18:34:25.243Z,99037.22
2018-12-07T18:36:56.263Z,99029.31
2018-12-07T18:39:26.777Z,99025.63
2018-12-07T18:41:57.526Z,99012.51
2018-12-07T18:44:28.042Z,99008.70
2018-12-07T18:46:59.559Z,99010.02
2018-12-07T18:49:29.643Z,99005.09
2018-12-07T18:52:00.555Z,98992.49
2018-12-07T18:54:30.936Z,98991.65
2018-12-07T18:57:00.845Z,98984.19
2018-12-07T18:59:30.844Z,98952.32
2018-12-07T19:02:01.340Z,98980.18
2018-12-07T19:04:31.730Z,98980.14
2018-12-07T19:07:02.503Z,98973.84
2018-12-07T19:09:32.735Z,98973.20
2018-12-07T19:12:02.783Z,98981.46
2018-12-07T19:14:33.273Z,98971.91
2018-12-07T19:17:03.601Z,98972.87
2018-12-07T19:19:34.096Z,98968.62
2018-12-07T19:22:04.558Z,98933.67
2018-12-07T19:24:34.738Z,98962.60
2018-12-07T19:27:05.706Z,98954.30
2018-12-07T19:29:37.384Z,98951.33
2018-12-07T19:32:07.642Z,98947.03
2018-12-07T19:34:38.273Z,98944.75
2018-12-07T19:37:08.790Z,98936.00
2018-12-07T19:39:39.366Z,98934.63
2018-12-07T19:42:10.537Z,98927.45
2018-12-07T19:44:40.642Z,98932.42
2018-12-07T19:47:11.720Z,98927.77
2018-12-07T19:49:43.025Z,98916.22
2018-12-07T19:52:13.982Z,98909.91
2018-12-07T19:54:44.884Z,98907.31
2018-12-07T19:57:15.338Z,98910.48
2018-12-07T19:59:45.785Z,98911.33
2018-12-07T20:02:17.598Z,98904.58
2018-12-07T20:04:47.883Z,98910.97
2018-12-07T20:07:20.880Z,98915.70
2018-12-07T20:09:51.581Z,98906.11
2018-12-07T20:12:22.030Z,98911.13
2018-12-07T20:14:52.660Z,98910.77
2018-12-07T20:17:23.140Z,98905.32
2018-12-07T20:19:53.645Z,98900.30
2018-12-07T20:22:24.474Z,98895.41
2018-12-07T20:24:55.220Z,98881.53
2018-12-07T20:27:25.812Z,98870.45
2018-12-07T20:29:56.330Z,98867.13
2018-12-07T20:32:26.646Z,98859.83
2018-12-07T20:34:56.784Z,98861.27
2018-12-07T20:37:27.454Z,98863.38
2018-12-07T20:39:57.511Z,98866.20
2018-12-07T20:42:28.693Z,98865.34
2018-12-07T20:44:58.963Z,98865.44
2018-12-07T20:47:29.886Z,98865.34
2018-12-07T20:50:00.720Z,98862.42
2018-12-07T20:52:31.011Z,98862.38
2018-12-07T20:55:01.371Z,98861.83
2018-12-07T20:57:31.740Z,98873.11
2018-12-07T21:00:02.434Z,98869.77
2018-12-07T21:02:33.736Z,98866.80
2018-12-07T21:05:53.927Z,98870.82
2018-12-07T21:08:43.771Z,98873.11
2018-12-07T21:11:24.759Z,98882.49
2018-12-07T21:14:03.760Z,98878.28
2018-12-07T21:17:38.639Z,98875.28
2018-12-07T21:20:18.721Z,98873.87
2018-12-07T21:22:49.394Z,98876.24
2018-12-07T21:25:20.527Z,98697.28
2018-12-07T21:27:50.650Z,98880.05
2018-12-07T21:30:58.272Z,98878.44
2018-12-07T21:34:37.199Z,98876.63
2018-12-07T21:37:07.526Z,98868.57
2018-12-07T21:39:46.041Z,98871.02
2018-12-07T21:42:18.193Z,98866.61
2018-12-07T21:44:48.407Z,98860.31
2018-12-07T21:47:39.609Z,98860.47
2018-12-07T21:50:14.379Z,98853.41
2018-12-07T21:52:44.941Z,98850.73
2018-12-07T21:55:16.678Z,98845.44
2018-12-07T21:57:47.016Z,98845.20
2018-12-07T22:00:17.447Z,98840.19
2018-12-07T22:02:47.781Z,98840.22
2018-12-07T22:05:20.285Z,98844.23
2018-12-07T22:07:50.631Z,98840.10
2018-12-07T22:10:20.619Z,98839.74
2018-12-07T22:12:50.691Z,98841.42
2018-12-07T22:15:20.592Z,98853.84
2018-12-07T22:17:50.794Z,98856.16
2018-12-07T22:20:26.813Z,98853.20
2018-12-07T22:22:56.640Z,98853.52
2018-12-07T22:25:26.865Z,98846.23
2018-12-07T22:27:56.962Z,98846.88
2018-12-07T22:30:28.527Z,98844.59
2018-12-07T22:32:58.630Z,98839.66
2018-12-07T22:35:29.660Z,98842.30
2018-12-07T22:38:00.123Z,98839.01
2018-12-07T22:40:30.430Z,98836.48
2018-12-07T22:43:00.975Z,98835.40
2018-12-07T22:45:31.339Z,98835.81
2018-12-07T22:48:01.682Z,98827.23
2018-12-07T22:50:31.832Z,98819.17
2018-12-07T22:53:01.677Z,98825.78
2018-12-07T22:55:31.520Z,98824.78
2018-12-07T22:58:01.435Z,98820.34
2018-12-07T23:00:31.467Z,98826.91
2018-12-07T23:03:01.460Z,98815.92
2018-12-07T23:05:31.488Z,98824.47
2018-12-07T23:08:01.295Z,98821.10
2018-12-07T23:10:31.284Z,98817.17
2018-12-07T23:13:01.226Z,98825.07
2018-12-07T23:15:31.292Z,98820.46
2018-12-07T23:18:01.454Z,98814.13
2018-12-07T23:20:31.458Z,98814.77
2018-12-07T23:23:01.548Z,98806.08
2018-12-07T23:25:31.654Z,98803.15
2018-12-07T23:28:01.457Z,98799.34
2018-12-07T23:30:31.330Z,98789.96
2018-12-07T23:33:01.456Z,98791.64
2018-12-07T23:35:31.701Z,98799.05
2018-12-07T23:38:01.577Z,98689.84
2018-12-07T23:40:31.495Z,98787.23
2018-12-07T23:43:02.469Z,98775.02
2018-12-07T23:45:32.298Z,98768.59
2018-12-07T23:48:02.536Z,98776.66
2018-12-07T23:50:32.435Z,98772.53
2018-12-07T23:53:02.362Z,98769.41
2018-12-07T23:55:32.219Z,98763.67
2018-12-07T23:58:02.521Z,98759.47
